Time;durP1;ratioP1;P1;durP2;ratioP2;P2;SDS_P1;SDS_P2;PMS_P1;PMS_P2;Temp;Humidity;BMP_temperature;BMP_pressure;BME280_temperature;BME280_humidity;BME280_pressure;Samples;Min_cycle;Max_cycle;Signal;HPM_P1;HPM_P2
2023/01/23 00:00:44;;;;;;;19.05;6.05;;;3.30;99.90;;;;;;4734507;30;20128;-74
2023/01/23 00:03:10;;;;;;;10.73;5.28;;;3.30;99.90;;;;;;4734726;30;20110;-73
2023/01/23 00:05:36;;;;;;;15.43;5.43;;;3.40;99.90;;;;;;4734735;30;20056;-73
2023/01/23 00:08:01;;;;;;;13.07;5.65;;;3.40;99.90;;;;;;4734059;30;20383;-73
2023/01/23 00:10:27;;;;;;;16.67;5.03;;;3.40;99.90;;;;;;4734164;30;20055;-73
2023/01/23 00:12:53;;;;;;;14.25;5.18;;;3.30;99.90;;;;;;4735613;30;20041;-74
2023/01/23 00:15:19;;;;;;;15.45;5.40;;;3.30;99.90;;;;;;4734352;30;20448;-74
2023/01/23 00:17:45;;;;;;;12.55;4.55;;;3.30;99.90;;;;;;4734542;30;20177;-73
2023/01/23 00:20:12;;;;;;;17.70;5.70;;;3.30;99.90;;;;;;4734526;30;20200;-73
2023/01/23 00:22:38;;;;;;;15.50;5.18;;;3.30;99.90;;;;;;4733989;30;20061;-74
2023/01/23 00:25:04;;;;;;;15.70;5.18;;;3.30;99.90;;;;;;4734166;30;20053;-73
2023/01/23 00:27:30;;;;;;;17.70;5.93;;;3.30;99.90;;;;;;4734176;30;20087;-73
2023/01/23 00:29:56;;;;;;;13.90;5.60;;;3.30;99.90;;;;;;4734424;30;20060;-73
2023/01/23 00:32:22;;;;;;;13.60;4.90;;;3.30;99.90;;;;;;4735368;30;20498;-73
2023/01/23 00:34:54;;;;;;;17.30;6.78;;;3.30;99.90;;;;;;4733947;30;20041;-74
2023/01/23 00:37:19;;;;;;;16.73;5.28;;;3.20;99.90;;;;;;4734137;30;20133;-73
2023/01/23 00:39:45;;;;;;;13.75;6.10;;;3.20;99.90;;;;;;4734258;30;20494;-73
2023/01/23 00:42:11;;;;;;;14.48;5.50;;;3.20;99.90;;;;;;4734258;30;20060;-74
2023/01/23 00:44:37;;;;;;;12.10;5.65;;;3.20;99.90;;;;;;4734274;30;20166;-73
2023/01/23 00:47:03;;;;;;;11.63;5.72;;;3.20;99.90;;;;;;4733722;30;20052;-73
2023/01/23 00:49:31;;;;;;;13.75;5.13;;;3.30;99.90;;;;;;4734069;30;20052;-73
2023/01/23 00:51:57;;;;;;;14.57;5.18;;;3.20;99.90;;;;;;4734160;30;20048;-74
2023/01/23 00:54:24;;;;;;;10.77;5.47;;;3.30;99.90;;;;;;4733916;30;20482;-74
2023/01/23 00:56:51;;;;;;;11.73;4.32;;;3.30;99.90;;;;;;4733963;30;20143;-74
2023/01/23 00:59:16;;;;;;;15.98;5.68;;;3.20;99.90;;;;;;4733813;30;20620;-74
2023/01/23 01:01:45;;;;;;;9.73;3.90;;;3.10;99.90;;;;;;4733888;30;20139;-74
2023/01/23 01:04:11;;;;;;;8.40;3.50;;;3.20;99.90;;;;;;4733761;30;20057;-73
2023/01/23 01:06:36;;;;;;;9.55;3.38;;;3.10;99.90;;;;;;4733744;30;20068;-74
2023/01/23 01:09:03;;;;;;;10.70;4.70;;;3.10;99.90;;;;;;4734017;30;20139;-73
2023/01/23 01:11:29;;;;;;;13.30;4.50;;;3.10;99.90;;;;;;4733824;30;20057;-73
2023/01/23 01:13:54;;;;;;;12.13;3.80;;;3.10;99.90;;;;;;4733930;30;20057;-73
2023/01/23 01:16:23;;;;;;;11.07;4.03;;;3.10;99.90;;;;;;4734807;30;20521;-73
2023/01/23 01:18:49;;;;;;;9.07;3.45;;;3.00;99.90;;;;;;4733927;30;20071;-74
2023/01/23 01:21:16;;;;;;;8.70;3.13;;;3.10;99.90;;;;;;4733914;30;20064;-73
2023/01/23 01:23:42;;;;;;;14.00;3.50;;;3.00;99.90;;;;;;4733724;30;20059;-74
2023/01/23 01:26:09;;;;;;;19.75;5.82;;;3.10;99.90;;;;;;4733748;30;20147;-73
2023/01/23 01:28:39;;;;;;;15.52;5.03;;;3.10;99.90;;;;;;4733703;30;20080;-73
2023/01/23 01:31:11;;;;;;;12.35;4.25;;;3.10;99.90;;;;;;4733619;30;20055;-73
2023/01/23 01:33:38;;;;;;;9.80;4.60;;;3.00;99.90;;;;;;4733920;30;20041;-73
2023/01/23 01:36:13;;;;;;;13.13;4.95;;;3.10;99.90;;;;;;4736804;30;20087;-74
2023/01/23 01:38:39;;;;;;;16.70;5.32;;;3.10;99.90;;;;;;4737085;30;20051;-74
2023/01/23 01:41:05;;;;;;;28.88;5.40;;;3.10;99.90;;;;;;4737050;30;20561;-74
2023/01/23 01:43:32;;;;;;;11.02;4.93;;;3.10;99.90;;;;;;4737981;30;20048;-73
2023/01/23 01:46:20;;;;;;;11.75;5.22;;;3.00;99.90;;;;;;4736618;30;20064;-74
2023/01/23 01:49:09;;;;;;;11.48;4.28;;;3.20;99.90;;;;;;4736945;30;20134;-73
2023/01/23 01:51:44;;;;;;;17.75;5.50;;;3.10;99.90;;;;;;4727057;30;20072;-74
2023/01/23 01:54:20;;;;;;;15.10;4.78;;;3.10;99.90;;;;;;4736391;30;20120;-73
2023/01/23 01:56:54;;;;;;;13.02;6.25;;;3.10;99.90;;;;;;4736469;30;20406;-73
2023/01/23 01:59:21;;;;;;;17.27;5.28;;;3.10;99.90;;;;;;4736111;30;20061;-74
2023/01/23 02:01:53;;;;;;;12.82;4.47;;;3.10;99.90;;;;;;4737475;30;20087;-73
2023/01/23 02:04:19;;;;;;;11.32;4.32;;;3.20;99.90;;;;;;4736268;30;20057;-73
2023/01/23 02:06:45;;;;;;;13.88;4.18;;;3.00;99.90;;;;;;4736159;30;20056;-73
2023/01/23 02:09:23;;;;;;;13.32;5.82;;;3.10;99.90;;;;;;4737584;30;20060;-73
2023/01/23 02:11:49;;;;;;;14.05;4.97;;;3.10;99.90;;;;;;4736519;30;20123;-73
2023/01/23 02:14:15;;;;;;;10.95;5.30;;;3.10;99.90;;;;;;4736394;30;20139;-74
2023/01/23 02:16:48;;;;;;;11.00;3.90;;;3.10;99.90;;;;;;4736439;30;20044;-74
2023/01/23 02:19:39;;;;;;;10.82;4.47;;;3.10;99.90;;;;;;4736044;30;20494;-73
2023/01/23 02:22:20;;;;;;;8.10;4.35;;;3.10;99.90;;;;;;4736045;30;20101;-74
2023/01/23 02:25:10;;;;;;;10.32;4.90;;;3.10;99.90;;;;;;4736394;30;20136;-74
2023/01/23 02:27:36;;;;;;;17.35;5.20;;;3.00;99.90;;;;;;4736033;30;20140;-74
2023/01/23 02:30:02;;;;;;;9.50;4.32;;;3.10;99.90;;;;;;4735878;30;20135;-73
2023/01/23 02:32:28;;;;;;;14.10;4.95;;;3.00;99.90;;;;;;4735862;30;20494;-73
2023/01/23 02:34:57;;;;;;;10.45;4.00;;;3.00;99.90;;;;;;4735894;30;20102;-73
2023/01/23 02:37:26;;;;;;;10.00;4.18;;;3.10;99.90;;;;;;4735777;30;20068;-74
2023/01/23 02:39:52;;;;;;;14.60;4.05;;;3.10;99.90;;;;;;4735903;30;20135;-73
2023/01/23 02:42:20;;;;;;;8.60;3.67;;;3.10;99.90;;;;;;4735603;30;20450;-73
2023/01/23 02:44:45;;;;;;;9.38;3.83;;;3.10;99.90;;;;;;4735635;30;20087;-73
2023/01/23 02:47:14;;;;;;;11.77;3.95;;;3.00;99.90;;;;;;4735702;30;20410;-73
2023/01/23 02:49:39;;;;;;;8.80;4.40;;;3.10;99.90;;;;;;4735237;30;20056;-73
2023/01/23 02:52:05;;;;;;;10.88;4.07;;;3.10;99.90;;;;;;4735814;30;20079;-73
2023/01/23 02:54:31;;;;;;;13.73;3.85;;;3.10;99.90;;;;;;4735406;30;20080;-73
2023/01/23 02:56:57;;;;;;;11.32;3.70;;;3.10;99.90;;;;;;4735598;30;20056;-74
2023/01/23 03:02:08;;;;;;;11.40;3.75;;;3.10;99.90;;;;;;4735392;30;20064;-73
2023/01/23 03:04:33;;;;;;;12.35;4.40;;;3.10;99.90;;;;;;4735405;30;20508;-73
2023/01/23 03:06:59;;;;;;;11.10;4.50;;;3.10;99.90;;;;;;4735165;30;20049;-73
2023/01/23 03:09:26;;;;;;;9.00;4.15;;;3.10;99.90;;;;;;4735439;30;20088;-73
2023/01/23 03:11:51;;;;;;;10.27;4.18;;;3.10;99.90;;;;;;4736594;30;20045;-73
2023/01/23 03:14:20;;;;;;;10.77;3.85;;;3.10;99.90;;;;;;4735245;30;20061;-73
2023/01/23 03:16:50;;;;;;;10.55;4.25;;;3.10;99.90;;;;;;4735430;30;20478;-73
2023/01/23 03:19:17;;;;;;;13.80;4.15;;;3.10;99.90;;;;;;4735154;30;20061;-73
2023/01/23 03:21:46;;;;;;;10.27;4.35;;;3.10;99.90;;;;;;4735008;30;20052;-73
2023/01/23 03:24:12;;;;;;;11.20;4.25;;;3.20;99.90;;;;;;4734976;30;20059;-73
2023/01/23 03:26:43;;;;;;;15.15;4.68;;;3.10;99.90;;;;;;4734881;30;20056;-73
2023/01/23 03:32:09;;;;;;;11.15;3.80;;;3.10;99.90;;;;;;4734805;30;20116;-73
2023/01/23 03:34:35;;;;;;;9.10;3.88;;;3.10;99.90;;;;;;4734796;30;20059;-73
2023/01/23 03:37:02;;;;;;;19.55;7.38;;;3.10;99.90;;;;;;4734810;30;20067;-73
2023/01/23 03:42:12;;;;;;;10.65;3.88;;;3.10;99.90;;;;;;4734553;30;20071;-73
2023/01/23 03:44:41;;;;;;;11.20;4.13;;;3.20;99.90;;;;;;4734658;30;20052;-73
2023/01/23 03:47:07;;;;;;;11.05;4.80;;;3.20;99.90;;;;;;4734595;30;20053;-74
2023/01/23 03:49:32;;;;;;;9.27;4.32;;;3.20;99.90;;;;;;4734641;30;20053;-73
2023/01/23 03:51:59;;;;;;;15.18;4.13;;;3.20;99.90;;;;;;4734717;30;20061;-73
2023/01/23 03:54:25;;;;;;;15.55;5.35;;;3.10;99.90;;;;;;4735830;30;20406;-73
2023/01/23 03:56:50;;;;;;;11.23;4.18;;;3.20;99.90;;;;;;4734128;30;20489;-73
2023/01/23 03:59:19;;;;;;;13.65;4.95;;;3.10;99.90;;;;;;4734349;30;20064;-73
2023/01/23 04:01:46;;;;;;;12.55;4.88;;;3.20;99.90;;;;;;4734678;30;20398;-74
2023/01/23 04:04:12;;;;;;;12.05;4.60;;;3.10;99.90;;;;;;4735941;30;20056;-73
2023/01/23 04:06:37;;;;;;;13.27;5.18;;;3.20;99.90;;;;;;4734374;30;20048;-73
2023/01/23 04:09:04;;;;;;;10.00;4.47;;;3.10;99.90;;;;;;4734351;30;20055;-73
2023/01/23 04:11:29;;;;;;;13.68;5.00;;;3.10;99.90;;;;;;4734222;30;20448;-73
2023/01/23 04:13:55;;;;;;;11.98;5.35;;;3.10;99.90;;;;;;4734279;30;20048;-74
2023/01/23 04:16:23;;;;;;;12.85;5.00;;;3.10;99.90;;;;;;4735509;30;20048;-73
2023/01/23 04:18:51;;;;;;;11.43;4.45;;;3.10;99.90;;;;;;4734266;30;20052;-73
2023/01/23 04:21:17;;;;;;;10.68;4.68;;;3.10;99.90;;;;;;4734245;30;20052;-73
2023/01/23 04:23:42;;;;;;;10.70;4.80;;;3.10;99.90;;;;;;4734488;30;20044;-74
2023/01/23 04:26:08;;;;;;;9.35;4.13;;;3.10;99.90;;;;;;4734369;30;20494;-73
2023/01/23 04:28:33;;;;;;;13.65;4.70;;;3.10;99.90;;;;;;4734186;30;20051;-73
2023/01/23 04:30:59;;;;;;;9.98;4.10;;;3.10;99.90;;;;;;4735411;30;20190;-73
2023/01/23 04:33:25;;;;;;;7.82;4.20;;;3.10;99.90;;;;;;4734169;30;20060;-73
2023/01/23 04:35:59;;;;;;;16.65;5.65;;;3.10;99.90;;;;;;4734148;30;20106;-73
2023/01/23 04:38:27;;;;;;;11.13;4.50;;;3.10;99.90;;;;;;4734206;30;20064;-73
2023/01/23 04:40:52;;;;;;;13.93;4.80;;;3.20;99.90;;;;;;4734254;30;20067;-73
2023/01/23 04:43:18;;;;;;;9.55;4.32;;;3.20;99.90;;;;;;4734058;30;20410;-73
2023/01/23 04:45:44;;;;;;;11.95;4.97;;;3.10;99.90;;;;;;4735288;30;20045;-73
2023/01/23 04:48:11;;;;;;;10.68;4.75;;;3.10;99.90;;;;;;4733934;30;20476;-73
2023/01/23 04:50:38;;;;;;;11.48;5.50;;;3.10;99.90;;;;;;4734303;30;20057;-73
2023/01/23 04:53:04;;;;;;;11.88;5.43;;;3.10;99.90;;;;;;4733821;30;20099;-74
2023/01/23 04:55:30;;;;;;;10.85;5.78;;;3.10;99.90;;;;;;4734090;30;20458;-73
2023/01/23 04:57:56;;;;;;;12.20;4.88;;;3.10;99.90;;;;;;4733907;30;20049;-73
2023/01/23 05:00:22;;;;;;;14.80;5.40;;;3.10;99.90;;;;;;4719370;30;20552;-73
2023/01/23 05:02:49;;;;;;;13.05;5.20;;;3.20;99.90;;;;;;4719691;30;20053;-73
2023/01/23 05:05:16;;;;;;;16.75;5.45;;;3.10;99.90;;;;;;4719297;30;20405;-73
2023/01/23 05:07:43;;;;;;;11.30;5.63;;;3.20;99.90;;;;;;4719217;30;20061;-74
2023/01/23 05:10:12;;;;;;;13.82;5.55;;;3.20;99.90;;;;;;4738415;30;20060;-73
2023/01/23 05:12:38;;;;;;;12.95;5.57;;;3.10;99.90;;;;;;4738363;30;20083;-73
2023/01/23 05:15:05;;;;;;;13.65;6.95;;;3.10;99.90;;;;;;4722659;30;20084;-73
2023/01/23 05:17:30;;;;;;;15.63;5.75;;;3.20;99.90;;;;;;4722695;30;20052;-73
2023/01/23 05:19:56;;;;;;;18.85;6.10;;;3.10;99.90;;;;;;4722585;30;20052;-74
2023/01/23 05:22:22;;;;;;;14.38;6.13;;;3.20;99.90;;;;;;4722689;30;20122;-74
2023/01/23 05:24:47;;;;;;;15.13;5.47;;;3.10;99.90;;;;;;4722525;30;20055;-73
2023/01/23 05:27:13;;;;;;;15.48;6.43;;;3.20;99.90;;;;;;4738161;30;20049;-74
2023/01/23 05:29:39;;;;;;;12.50;5.65;;;3.10;99.90;;;;;;4722648;30;20068;-73
2023/01/23 05:32:07;;;;;;;13.38;5.32;;;3.10;99.90;;;;;;4722538;30;20048;-74
2023/01/23 05:34:32;;;;;;;17.63;6.43;;;3.10;99.90;;;;;;4722536;30;20521;-73
2023/01/23 05:36:58;;;;;;;14.02;5.60;;;3.20;99.90;;;;;;4722205;30;20128;-73
2023/01/23 05:39:24;;;;;;;16.50;6.82;;;3.10;99.90;;;;;;4737935;30;20057;-73
2023/01/23 05:41:49;;;;;;;15.05;5.60;;;3.10;99.90;;;;;;4722315;30;20398;-74
2023/01/23 05:44:15;;;;;;;12.90;5.68;;;3.10;99.90;;;;;;4722428;30;20128;-74
2023/01/23 05:46:41;;;;;;;10.73;5.35;;;3.20;99.90;;;;;;4722083;30;20156;-73
2023/01/23 05:49:06;;;;;;;12.25;6.35;;;3.10;99.90;;;;;;4722335;30;20057;-74
2023/01/23 05:51:32;;;;;;;13.80;6.20;;;3.20;99.90;;;;;;4721906;30;20056;-73
2023/01/23 05:54:02;;;;;;;11.88;6.10;;;3.10;99.90;;;;;;4722095;30;20087;-74
2023/01/23 05:56:28;;;;;;;17.77;7.78;;;3.10;99.90;;;;;;4722145;30;20048;-73
2023/01/23 05:58:56;;;;;;;14.63;6.72;;;3.10;99.90;;;;;;4726245;30;20056;-73
2023/01/23 06:01:22;;;;;;;15.60;6.38;;;3.20;99.90;;;;;;4736668;30;20077;-74
2023/01/23 06:03:51;;;;;;;20.33;6.65;;;3.10;99.90;;;;;;4736694;30;20052;-73
2023/01/23 06:06:16;;;;;;;13.43;6.43;;;3.10;99.90;;;;;;4736260;30;20064;-73
2023/01/23 06:08:45;;;;;;;18.45;7.20;;;3.20;99.90;;;;;;4736260;30;20075;-73
2023/01/23 06:11:10;;;;;;;14.73;5.82;;;3.10;99.90;;;;;;4736520;30;20056;-73
2023/01/23 06:13:36;;;;;;;18.23;8.13;;;3.10;99.90;;;;;;4736345;30;20064;-73
2023/01/23 06:16:02;;;;;;;15.15;7.30;;;3.20;99.90;;;;;;4736184;30;20055;-73
2023/01/23 06:18:27;;;;;;;11.80;6.30;;;3.20;99.90;;;;;;4735989;30;20087;-73
2023/01/23 06:20:58;;;;;;;14.05;6.97;;;3.20;99.90;;;;;;4735649;30;20044;-73
2023/01/23 06:23:26;;;;;;;12.40;6.10;;;3.10;99.90;;;;;;4736063;30;20139;-73
2023/01/23 06:25:52;;;;;;;14.63;6.78;;;3.10;99.90;;;;;;4736297;30;20072;-73
2023/01/23 06:28:21;;;;;;;20.50;10.35;;;3.10;99.90;;;;;;4735941;30;20437;-73
2023/01/23 06:30:46;;;;;;;12.90;6.30;;;3.10;99.90;;;;;;4735954;30;20049;-73
2023/01/23 06:33:12;;;;;;;15.57;7.65;;;3.10;99.90;;;;;;4735817;30;20056;-73
2023/01/23 06:35:37;;;;;;;18.38;7.85;;;3.10;99.90;;;;;;4735784;30;20045;-74
2023/01/23 06:38:06;;;;;;;18.75;7.25;;;3.10;99.90;;;;;;4736005;30;20064;-73
2023/01/23 06:40:31;;;;;;;18.10;7.38;;;3.10;99.90;;;;;;4735815;30;20052;-73
2023/01/23 06:42:57;;;;;;;13.15;6.15;;;3.00;99.90;;;;;;4735854;30;20054;-73
2023/01/23 06:45:22;;;;;;;15.85;5.85;;;3.00;99.90;;;;;;4735687;30;20052;-74
2023/01/23 06:47:50;;;;;;;15.07;6.10;;;3.10;99.90;;;;;;4735607;30;20431;-74
2023/01/23 06:50:16;;;;;;;12.73;5.85;;;3.10;99.90;;;;;;4735758;30;20048;-74
2023/01/23 06:52:41;;;;;;;13.10;5.93;;;3.00;99.90;;;;;;4735774;30;20055;-73
2023/01/23 06:55:08;;;;;;;12.85;6.50;;;3.00;99.90;;;;;;4735562;30;20049;-74
2023/01/23 06:57:36;;;;;;;14.82;6.70;;;3.00;99.90;;;;;;4735582;30;20051;-74
2023/01/23 07:00:03;;;;;;;23.08;6.25;;;3.10;99.90;;;;;;4735115;30;20514;-73
2023/01/23 07:02:29;;;;;;;15.68;5.72;;;3.00;99.90;;;;;;4735234;30;20091;-74
2023/01/23 07:04:54;;;;;;;12.35;5.60;;;3.00;99.90;;;;;;4735414;30;20096;-74
2023/01/23 07:07:20;;;;;;;13.85;5.85;;;2.90;99.90;;;;;;4735230;30;20059;-73
2023/01/23 07:09:45;;;;;;;15.60;6.40;;;3.00;99.90;;;;;;4735302;30;20057;-73
2023/01/23 07:12:12;;;;;;;13.90;6.63;;;3.00;99.90;;;;;;4735330;30;20093;-74
2023/01/23 07:14:37;;;;;;;16.65;7.32;;;3.00;99.90;;;;;;4735516;30;20087;-73
2023/01/23 07:17:03;;;;;;;20.40;11.55;;;3.00;99.90;;;;;;4735302;30;20528;-73
2023/01/23 07:19:28;;;;;;;9.45;5.00;;;3.00;99.90;;;;;;4735061;30;20056;-74
2023/01/23 07:21:54;;;;;;;17.42;10.05;;;2.90;99.90;;;;;;4735055;30;20054;-73
2023/01/23 07:24:20;;;;;;;17.55;11.93;;;2.90;99.90;;;;;;4735313;30;20053;-73
2023/01/23 07:26:45;;;;;;;8.75;5.40;;;2.90;99.90;;;;;;4735005;30;20084;-74
2023/01/23 07:29:14;;;;;;;14.02;5.72;;;2.90;99.90;;;;;;4734879;30;20102;-73
2023/01/23 07:31:43;;;;;;;9.63;4.82;;;2.90;99.90;;;;;;4734252;30;20104;-73
2023/01/23 07:34:08;;;;;;;14.30;7.88;;;2.90;99.90;;;;;;4734470;30;20561;-73
2023/01/23 07:36:34;;;;;;;11.18;5.65;;;2.90;99.90;;;;;;4734921;30;20140;-73
2023/01/23 07:38:59;;;;;;;14.38;5.35;;;2.90;99.90;;;;;;4734548;30;20048;-74
2023/01/23 07:41:25;;;;;;;12.88;6.25;;;2.90;99.90;;;;;;4735367;30;20060;-74
2023/01/23 07:43:50;;;;;;;12.50;5.85;;;2.90;99.90;;;;;;4733229;30;20041;-73
2023/01/23 07:46:16;;;;;;;14.13;6.30;;;2.90;99.90;;;;;;4733845;30;20202;-74
2023/01/23 07:48:42;;;;;;;14.30;7.40;;;2.90;99.90;;;;;;4734451;30;20088;-74
2023/01/23 07:51:07;;;;;;;15.98;6.70;;;3.00;99.90;;;;;;5149252;24;20148;-74
2023/01/23 07:53:33;;;;;;;12.60;6.85;;;2.80;99.90;;;;;;4737691;30;20145;-73
2023/01/23 07:56:02;;;;;;;13.38;6.57;;;2.80;99.90;;;;;;4737520;30;20165;-73
2023/01/23 07:58:31;;;;;;;13.55;6.60;;;2.80;99.90;;;;;;4737245;30;20554;-73
2023/01/23 08:00:56;;;;;;;10.95;6.13;;;2.90;99.90;;;;;;4737286;30;20048;-74
2023/01/23 08:03:27;;;;;;;23.15;8.68;;;2.90;99.90;;;;;;4737460;30;20060;-73
2023/01/23 08:05:56;;;;;;;15.00;7.38;;;2.90;99.90;;;;;;4737330;30;20077;-74
2023/01/23 08:08:22;;;;;;;15.30;8.05;;;2.90;99.90;;;;;;4737139;30;20139;-74
2023/01/23 08:10:47;;;;;;;16.15;8.40;;;2.90;99.90;;;;;;4736495;30;20454;-73
2023/01/23 08:13:13;;;;;;;18.17;9.13;;;2.90;99.90;;;;;;4735887;30;20051;-73
2023/01/23 08:15:38;;;;;;;20.98;9.15;;;2.90;99.90;;;;;;4736702;30;20124;-73
2023/01/23 08:18:05;;;;;;;17.23;8.55;;;2.90;99.90;;;;;;4736883;30;20059;-73
2023/01/23 08:20:30;;;;;;;21.83;12.40;;;2.90;99.90;;;;;;4736778;30;20052;-73
2023/01/23 08:22:57;;;;;;;17.20;8.35;;;2.90;99.90;;;;;;4736673;30;20151;-73
2023/01/23 08:25:23;;;;;;;15.00;7.22;;;2.90;99.90;;;;;;4736663;30;20048;-73
2023/01/23 08:27:49;;;;;;;16.90;8.02;;;2.90;99.90;;;;;;4736592;30;20063;-73
2023/01/23 08:30:18;;;;;;;16.10;7.55;;;2.90;99.90;;;;;;4736929;30;20060;-74
2023/01/23 08:32:43;;;;;;;15.05;8.13;;;3.00;99.90;;;;;;4736951;30;20100;-72
2023/01/23 08:35:09;;;;;;;13.90;7.18;;;3.00;99.90;;;;;;4736742;30;20056;-74
2023/01/23 08:37:35;;;;;;;19.48;9.20;;;2.90;99.90;;;;;;4736605;30;20044;-73
2023/01/23 08:40:02;;;;;;;14.95;7.50;;;3.00;99.90;;;;;;4736742;30;20497;-74
2023/01/23 08:42:27;;;;;;;19.17;7.00;;;2.90;99.90;;;;;;4736547;30;20056;-73
2023/01/23 08:44:53;;;;;;;15.82;5.97;;;3.00;99.90;;;;;;4739957;30;20059;-74
2023/01/23 08:47:19;;;;;;;13.70;6.18;;;3.00;99.90;;;;;;4740268;30;20449;-73
2023/01/23 08:49:44;;;;;;;12.48;6.40;;;3.00;99.90;;;;;;4739947;30;20143;-73
2023/01/23 08:52:10;;;;;;;12.60;7.38;;;3.00;99.90;;;;;;4739871;30;20063;-75
2023/01/23 08:54:36;;;;;;;11.60;5.22;;;3.00;99.90;;;;;;4740437;30;20109;-72
2023/01/23 08:57:01;;;;;;;9.48;4.85;;;3.00;99.90;;;;;;4740045;30;20409;-73
2023/01/23 08:59:27;;;;;;;9.43;5.10;;;3.00;99.90;;;;;;4739477;30;20064;-73
2023/01/23 09:01:53;;;;;;;10.60;5.20;;;3.10;99.90;;;;;;4739458;30;20467;-74
2023/01/23 09:04:39;;;;;;;10.45;4.90;;;3.10;99.90;;;;;;4740091;30;20048;-74
2023/01/23 09:07:05;;;;;;;9.73;4.10;;;3.10;99.90;;;;;;4755283;30;20056;-74
2023/01/23 09:09:30;;;;;;;8.65;4.45;;;3.10;99.90;;;;;;4739869;30;20089;-74
2023/01/23 09:11:56;;;;;;;5.63;3.30;;;3.10;99.90;;;;;;4739889;30;20069;-74
2023/01/23 09:14:21;;;;;;;5.88;3.30;;;3.10;99.90;;;;;;4739880;30;20557;-74
2023/01/23 09:16:47;;;;;;;6.35;3.33;;;3.20;99.90;;;;;;4740005;30;20044;-74
2023/01/23 09:19:14;;;;;;;5.00;2.58;;;3.20;99.90;;;;;;4739972;30;20106;-74
2023/01/23 09:21:40;;;;;;;7.97;2.70;;;3.20;99.90;;;;;;4739754;30;20131;-74
2023/01/23 09:24:06;;;;;;;7.05;3.05;;;3.10;99.90;;;;;;4724898;30;20150;-75
2023/01/23 09:26:32;;;;;;;6.20;3.53;;;3.20;99.90;;;;;;4725498;30;20489;-74
2023/01/23 09:28:57;;;;;;;3.70;2.00;;;3.20;99.90;;;;;;4739225;30;20052;-74
2023/01/23 09:31:23;;;;;;;2.97;1.65;;;3.20;99.90;;;;;;4755527;30;20055;-74
2023/01/23 09:33:49;;;;;;;3.53;1.70;;;3.20;99.90;;;;;;4739588;30;20067;-74
2023/01/23 09:36:15;;;;;;;4.07;1.90;;;3.20;99.90;;;;;;4739384;30;20457;-74
2023/01/23 09:38:40;;;;;;;4.43;2.75;;;3.20;99.90;;;;;;4739667;30;20048;-74
2023/01/23 09:41:15;;;;;;;4.85;2.75;;;3.20;99.90;;;;;;4739465;30;20528;-74
2023/01/23 09:43:59;;;;;;;5.00;2.00;;;3.30;99.90;;;;;;4739322;30;20056;-74
2023/01/23 09:46:41;;;;;;;4.05;2.10;;;3.30;99.90;;;;;;4739337;30;20052;-74
2023/01/23 09:49:32;;;;;;;2.53;1.35;;;3.30;99.90;;;;;;4739234;30;20052;-74
2023/01/23 09:52:14;;;;;;;5.05;2.10;;;3.30;99.90;;;;;;4738991;30;20061;-74
2023/01/23 09:54:43;;;;;;;6.78;2.95;;;3.30;99.90;;;;;;4738380;30;20485;-74
2023/01/23 09:57:20;;;;;;;3.95;1.90;;;3.40;99.90;;;;;;4738713;30;20135;-74
2023/01/23 10:00:14;;;;;;;4.22;1.85;;;3.30;99.90;;;;;;4739018;30;20139;-74
2023/01/23 10:02:43;;;;;;;3.58;1.60;;;3.40;99.90;;;;;;4736043;30;20059;-74
2023/01/23 10:05:13;;;;;;;2.83;1.52;;;3.40;99.90;;;;;;4754987;30;20133;-74
2023/01/23 10:07:59;;;;;;;4.38;2.50;;;3.40;99.90;;;;;;4754768;30;20040;-74
2023/01/23 10:10:38;;;;;;;3.83;2.00;;;3.50;99.90;;;;;;4739086;30;20117;-74
2023/01/23 10:13:12;;;;;;;4.85;2.28;;;3.40;99.90;;;;;;4739033;30;20139;-75
2023/01/23 10:15:50;;;;;;;3.95;2.35;;;3.50;99.90;;;;;;4739037;30;20142;-74
2023/01/23 10:18:40;;;;;;;4.93;2.50;;;3.50;99.90;;;;;;4738734;30;20080;-74
2023/01/23 10:21:14;;;;;;;6.88;3.25;;;3.50;99.90;;;;;;4738512;30;20064;-74
2023/01/23 10:23:50;;;;;;;8.52;3.50;;;3.50;99.90;;;;;;4738691;30;20059;-74
2023/01/23 10:26:22;;;;;;;7.38;3.75;;;3.50;99.90;;;;;;4738658;30;20079;-74
2023/01/23 10:28:53;;;;;;;8.50;5.10;;;3.60;99.90;;;;;;4738450;30;20109;-74
2023/01/23 10:31:22;;;;;;;10.07;4.72;;;3.60;99.90;;;;;;4738453;30;20132;-74
2023/01/23 10:33:59;;;;;;;10.25;4.93;;;3.60;99.90;;;;;;4738692;30;20056;-74
2023/01/23 10:36:38;;;;;;;9.15;4.50;;;3.60;99.90;;;;;;4738594;30;20111;-74
2023/01/23 10:39:16;;;;;;;8.60;4.93;;;3.60;99.90;;;;;;4724152;30;20048;-73
2023/01/23 10:41:41;;;;;;;9.73;4.80;;;3.70;99.90;;;;;;4738388;30;20497;-74
2023/01/23 10:44:18;;;;;;;10.75;4.75;;;3.70;99.90;;;;;;4738267;30;20082;-74
2023/01/23 10:46:49;;;;;;;8.55;4.55;;;3.60;99.90;;;;;;4694543;30;20112;-75
2023/01/23 10:49:44;;;;;;;9.07;4.80;;;3.70;99.90;;;;;;4737052;30;20185;-73
2023/01/23 10:52:35;;;;;;;9.02;4.75;;;3.70;99.90;;;;;;4735476;30;20067;-73
2023/01/23 10:55:02;;;;;;;7.97;4.28;;;3.70;99.90;;;;;;4738104;30;20082;-74
2023/01/23 10:57:44;;;;;;;9.02;4.80;;;3.70;99.90;;;;;;4738297;30;20083;-74
2023/01/23 11:00:35;;;;;;;9.90;4.72;;;3.70;99.90;;;;;;4738038;30;20117;-74
2023/01/23 11:03:26;;;;;;;9.00;5.18;;;3.80;99.90;;;;;;4737990;30;20056;-74
2023/01/23 11:06:04;;;;;;;13.52;6.30;;;3.70;99.90;;;;;;4737697;30;20055;-74
2023/01/23 11:08:41;;;;;;;11.00;4.88;;;3.80;99.90;;;;;;4737766;30;20134;-74
2023/01/23 11:11:23;;;;;;;12.20;5.30;;;3.70;99.90;;;;;;4737573;30;20051;-74
2023/01/23 11:14:11;;;;;;;12.75;6.53;;;3.70;99.90;;;;;;4737740;30;20056;-74
2023/01/23 11:16:37;;;;;;;13.30;7.35;;;3.80;99.90;;;;;;4737733;30;20048;-74
2023/01/23 11:19:09;;;;;;;12.88;5.70;;;3.80;99.90;;;;;;4737574;30;20060;-74
2023/01/23 11:21:49;;;;;;;10.75;4.78;;;3.80;99.90;;;;;;4737793;30;20136;-74
2023/01/23 11:24:26;;;;;;;8.77;4.68;;;3.80;99.90;;;;;;4737699;30;20048;-74
2023/01/23 11:27:12;;;;;;;9.52;6.00;;;3.90;99.90;;;;;;4737797;30;20133;-74
2023/01/23 11:30:07;;;;;;;11.07;5.85;;;3.90;99.90;;;;;;4737321;30;20048;-74
2023/01/23 11:32:41;;;;;;;10.77;4.90;;;3.90;99.90;;;;;;4737413;30;20409;-74
2023/01/23 11:35:33;;;;;;;8.82;4.43;;;3.90;99.90;;;;;;4736839;30;20533;-74
2023/01/23 11:38:02;;;;;;;5.93;3.35;;;3.90;99.90;;;;;;4737427;30;20087;-74
2023/01/23 11:40:28;;;;;;;4.40;2.50;;;3.90;99.90;;;;;;4737270;30;20060;-74
2023/01/23 11:42:54;;;;;;;6.25;3.00;;;3.90;99.90;;;;;;4737140;30;20051;-73
2023/01/23 11:46:09;;;;;;;5.85;3.22;;;3.90;99.90;;;;;;4737227;30;20092;-74
2023/01/23 11:49:18;;;;;;;5.63;2.90;;;3.90;99.90;;;;;;4736850;30;20052;-74
2023/01/23 11:52:37;;;;;;;4.40;2.75;;;4.00;99.90;;;;;;4737059;30;20151;-74
2023/01/23 11:55:41;;;;;;;8.30;3.63;;;3.90;99.90;;;;;;4753062;30;20064;-74
2023/01/23 11:58:28;;;;;;;8.52;4.03;;;3.90;99.90;;;;;;4666920;30;20065;-73
2023/01/23 12:01:23;;;;;;;6.10;4.20;;;3.90;99.90;;;;;;4667280;30;20064;-74
2023/01/23 12:04:26;;;;;;;7.72;4.50;;;4.00;99.90;;;;;;4723491;30;20056;-74
2023/01/23 12:06:51;;;;;;;8.05;3.72;;;4.00;99.90;;;;;;4736880;30;20157;-74
2023/01/23 12:09:20;;;;;;;9.98;6.03;;;4.00;99.90;;;;;;4737055;30;20456;-74
2023/01/23 12:12:19;;;;;;;6.93;3.60;;;4.00;99.90;;;;;;4737113;30;20452;-74
2023/01/23 12:14:48;;;;;;;9.95;4.13;;;3.90;99.90;;;;;;4736839;30;20134;-74
2023/01/23 12:17:36;;;;;;;9.10;4.15;;;4.00;99.90;;;;;;4736591;30;20048;-74
2023/01/23 12:20:51;;;;;;;38.90;17.98;;;4.00;99.90;;;;;;4725719;30;20067;-74
2023/01/23 12:23:44;;;;;;;14.95;8.15;;;4.00;99.90;;;;;;4700899;30;20057;-74
2023/01/23 12:26:23;;;;;;;22.77;11.75;;;3.90;99.90;;;;;;4736753;30;20079;-74
2023/01/23 12:28:49;;;;;;;9.45;4.95;;;3.90;99.90;;;;;;4736510;30;20056;-74
2023/01/23 12:31:32;;;;;;;12.23;7.20;;;3.90;99.90;;;;;;4736285;30;20074;-74
2023/01/23 12:34:06;;;;;;;7.07;3.35;;;3.90;99.90;;;;;;4736478;30;20055;-74
2023/01/23 12:36:37;;;;;;;6.22;3.30;;;3.80;99.90;;;;;;4736570;30;20150;-74
2023/01/23 12:39:20;;;;;;;8.77;4.38;;;3.90;99.90;;;;;;4736676;30;20094;-74
2023/01/23 12:41:57;;;;;;;9.95;5.25;;;3.90;99.90;;;;;;4736409;30;20175;-74
2023/01/23 12:44:43;;;;;;;10.07;4.63;;;4.00;99.90;;;;;;4736719;30;20505;-73
2023/01/23 12:47:21;;;;;;;7.35;4.07;;;4.00;99.90;;;;;;4736494;30;20120;-73
2023/01/23 12:49:47;;;;;;;4.20;2.88;;;4.00;99.90;;;;;;4736540;30;20060;-73
2023/01/23 12:52:24;;;;;;;7.07;3.30;;;3.90;99.90;;;;;;4733196;30;20067;-73
2023/01/23 12:55:06;;;;;;;5.63;2.95;;;3.90;99.90;;;;;;4727290;30;20060;-74
2023/01/23 12:57:39;;;;;;;5.73;3.60;;;3.90;99.90;;;;;;4727390;30;20394;-74
2023/01/23 13:00:26;;;;;;;10.20;4.20;;;4.00;99.90;;;;;;4736337;30;20790;-74
2023/01/23 13:03:05;;;;;;;10.10;4.47;;;3.90;99.90;;;;;;4736588;30;20099;-74
2023/01/23 13:05:57;;;;;;;8.98;5.15;;;4.00;99.90;;;;;;4736647;30;20566;-74
2023/01/23 13:08:47;;;;;;;6.68;3.55;;;4.00;99.90;;;;;;4734647;30;20075;-74
2023/01/23 13:11:40;;;;;;;5.50;3.00;;;4.00;99.90;;;;;;4736173;30;20056;-75
2023/01/23 13:14:22;;;;;;;5.35;2.15;;;4.00;99.90;;;;;;4734822;30;20079;-73
2023/01/23 13:16:50;;;;;;;7.22;2.95;;;4.00;99.90;;;;;;4735699;30;20070;-75